Time;durP1;ratioP1;P1;durP2;ratioP2;P2;SDS_P1;SDS_P2;PMS_P1;PMS_P2;Temp;Humidity;BMP_temperature;BMP_pressure;BME280_temperature;BME280_humidity;BME280_pressure;Samples;Min_cycle;Max_cycle;Signal;HPM_P1;HPM_P2
2022/10/15 00:00:49;;;;;;;15.20;13.25;;;14.70;99.90;;;;;;5020142;28;20204;-80
2022/10/15 00:03:18;;;;;;;15.35;12.63;;;14.70;99.90;;;;;;5016630;28;20214;-79
2022/10/15 00:05:45;;;;;;;16.15;12.60;;;14.80;99.90;;;;;;5011754;28;20199;-79
2022/10/15 00:08:13;;;;;;;14.20;12.02;;;14.70;99.90;;;;;;5016985;28;20234;-79
2022/10/15 00:10:41;;;;;;;15.02;12.43;;;14.60;99.90;;;;;;5017182;28;20210;-80
2022/10/15 00:13:08;;;;;;;17.40;13.75;;;14.70;99.90;;;;;;5016753;28;20201;-80
2022/10/15 00:15:37;;;;;;;16.48;13.88;;;14.70;99.90;;;;;;5032900;28;20198;-80
2022/10/15 00:18:05;;;;;;;16.58;13.13;;;14.70;99.90;;;;;;5015222;28;20196;-80
2022/10/15 00:20:34;;;;;;;16.27;12.60;;;14.70;99.90;;;;;;5015499;28;20207;-80
2022/10/15 00:23:01;;;;;;;16.90;13.02;;;14.60;99.90;;;;;;5033650;28;20207;-80
2022/10/15 00:25:28;;;;;;;15.57;12.40;;;14.70;99.90;;;;;;5039261;28;20206;-79
2022/10/15 00:27:56;;;;;;;17.58;13.85;;;14.80;99.90;;;;;;5012179;28;20206;-80
2022/10/15 00:30:25;;;;;;;16.52;13.45;;;14.80;99.90;;;;;;5031721;28;20191;-80
2022/10/15 00:32:53;;;;;;;18.15;13.27;;;14.80;99.90;;;;;;5033826;28;20204;-80
2022/10/15 00:35:20;;;;;;;18.40;13.13;;;14.80;99.90;;;;;;5035390;28;20711;-80
2022/10/15 00:37:49;;;;;;;16.02;12.70;;;14.80;99.90;;;;;;5037928;28;20548;-80
2022/10/15 00:40:16;;;;;;;15.75;11.70;;;14.80;99.90;;;;;;5025303;28;20222;-79
2022/10/15 00:42:44;;;;;;;16.20;12.75;;;14.80;99.90;;;;;;5036488;28;20204;-79
2022/10/15 00:45:14;;;;;;;15.57;12.38;;;14.80;99.90;;;;;;5033690;28;20194;-80
2022/10/15 00:47:44;;;;;;;16.58;13.48;;;14.70;99.90;;;;;;5026034;28;20211;-80
2022/10/15 00:50:15;;;;;;;16.02;13.35;;;14.70;99.90;;;;;;5027769;28;20222;-80
2022/10/15 00:52:46;;;;;;;16.30;14.20;;;14.70;99.90;;;;;;5013571;28;20217;-79
2022/10/15 00:55:18;;;;;;;18.08;14.18;;;14.70;99.90;;;;;;5032566;28;20203;-80
2022/10/15 00:57:49;;;;;;;17.85;13.90;;;14.70;99.90;;;;;;5030202;28;20191;-80
2022/10/15 01:00:18;;;;;;;16.15;13.07;;;14.70;99.90;;;;;;5035669;28;20696;-80
2022/10/15 01:02:46;;;;;;;22.50;14.15;;;14.70;99.90;;;;;;5019224;28;20198;-79
2022/10/15 01:05:16;;;;;;;18.08;14.35;;;14.70;99.90;;;;;;5033310;28;20699;-79
2022/10/15 01:07:43;;;;;;;16.85;14.02;;;14.60;99.90;;;;;;5030546;28;20219;-79
2022/10/15 01:10:11;;;;;;;17.40;14.23;;;14.70;99.90;;;;;;5032403;28;20256;-80
2022/10/15 01:12:56;;;;;;;18.50;15.10;;;14.70;99.90;;;;;;5033004;28;20199;-80
2022/10/15 01:15:29;;;;;;;18.08;14.43;;;14.70;99.90;;;;;;5011010;28;20661;-80
2022/10/15 01:18:01;;;;;;;19.92;14.23;;;14.60;99.90;;;;;;5012465;28;20207;-79
2022/10/15 01:20:48;;;;;;;17.13;14.25;;;14.70;99.90;;;;;;5024248;28;20199;-79
2022/10/15 01:23:54;;;;;;;19.55;14.80;;;14.60;99.90;;;;;;5002793;28;20202;-80
2022/10/15 01:26:48;;;;;;;18.33;13.93;;;14.60;99.90;;;;;;5028425;28;20211;-79
2022/10/15 01:29:39;;;;;;;18.88;14.50;;;14.60;99.90;;;;;;5004817;28;20219;-79
2022/10/15 01:32:14;;;;;;;21.05;15.85;;;14.60;99.90;;;;;;5012730;28;20550;-80
2022/10/15 01:34:50;;;;;;;19.60;15.05;;;14.60;99.90;;;;;;5030063;28;20199;-80
2022/10/15 01:37:24;;;;;;;17.60;14.88;;;14.60;99.90;;;;;;5006250;28;20210;-80
2022/10/15 01:39:57;;;;;;;19.35;14.48;;;14.50;99.90;;;;;;5015739;28;20210;-79
2022/10/15 01:42:31;;;;;;;16.83;15.00;;;14.50;99.90;;;;;;5027007;28;20195;-80
2022/10/15 01:45:02;;;;;;;20.38;14.90;;;14.50;99.90;;;;;;5029291;28;20206;-79
2022/10/15 01:47:42;;;;;;;18.17;14.35;;;14.40;99.90;;;;;;5028229;28;20199;-80
2022/10/15 01:50:13;;;;;;;21.85;15.38;;;14.50;99.90;;;;;;5023257;28;20218;-79
2022/10/15 01:52:43;;;;;;;19.67;14.40;;;14.40;99.90;;;;;;5028109;28;20213;-79
2022/10/15 01:55:14;;;;;;;17.73;14.50;;;14.40;99.90;;;;;;5031405;28;20194;-79
2022/10/15 01:57:44;;;;;;;19.85;16.75;;;14.40;99.90;;;;;;5028107;28;20195;-79
2022/10/15 02:00:14;;;;;;;20.05;15.88;;;14.40;99.90;;;;;;5024381;28;20231;-79
2022/10/15 02:02:43;;;;;;;20.30;15.75;;;14.40;99.90;;;;;;5026665;28;20200;-79
2022/10/15 02:05:20;;;;;;;20.23;16.23;;;14.40;99.90;;;;;;5012912;28;20207;-80
2022/10/15 02:08:01;;;;;;;19.73;16.23;;;14.30;99.90;;;;;;5023705;28;20195;-80
2022/10/15 02:10:46;;;;;;;19.77;16.38;;;14.40;99.90;;;;;;5028975;28;20195;-79
2022/10/15 02:13:19;;;;;;;21.10;16.08;;;14.40;99.90;;;;;;5024706;28;20236;-80
2022/10/15 02:15:57;;;;;;;20.88;15.93;;;14.40;99.90;;;;;;5025537;28;20207;-80
2022/10/15 02:18:32;;;;;;;18.23;15.35;;;14.40;99.90;;;;;;5013130;28;20211;-79
2022/10/15 02:21:06;;;;;;;21.00;16.30;;;14.30;99.90;;;;;;5011356;28;20199;-80
2022/10/15 02:23:41;;;;;;;19.20;15.60;;;14.30;99.90;;;;;;5030575;28;20195;-79
2022/10/15 02:26:10;;;;;;;19.48;15.25;;;14.40;99.90;;;;;;5008249;28;20199;-79
2022/10/15 02:28:42;;;;;;;19.75;15.02;;;14.40;99.90;;;;;;5033355;28;20237;-80
2022/10/15 02:31:12;;;;;;;18.25;15.73;;;14.40;99.90;;;;;;5030479;28;20207;-79
2022/10/15 02:33:42;;;;;;;19.23;15.80;;;14.40;99.90;;;;;;5028189;28;20263;-79
2022/10/15 02:36:14;;;;;;;25.25;19.67;;;14.40;99.90;;;;;;5015581;28;20202;-80
2022/10/15 02:38:44;;;;;;;24.85;18.27;;;14.40;99.90;;;;;;5020054;28;20215;-80
2022/10/15 02:41:12;;;;;;;23.42;17.98;;;14.40;99.90;;;;;;5017961;28;20203;-80
2022/10/15 02:43:41;;;;;;;28.52;19.30;;;14.40;99.90;;;;;;5036289;28;20266;-80
2022/10/15 02:46:12;;;;;;;28.75;20.02;;;14.40;99.90;;;;;;5019054;28;20205;-80
2022/10/15 02:48:40;;;;;;;28.77;19.85;;;14.40;99.90;;;;;;5040783;28;20223;-80
2022/10/15 02:51:08;;;;;;;29.42;22.08;;;14.40;99.90;;;;;;5013165;28;20206;-80
2022/10/15 02:53:36;;;;;;;23.98;20.15;;;14.40;99.90;;;;;;5017383;28;20199;-79
2022/10/15 02:56:05;;;;;;;23.77;18.90;;;14.30;99.90;;;;;;5032105;28;20550;-79
2022/10/15 02:58:33;;;;;;;30.50;22.38;;;14.40;99.90;;;;;;5032181;28;20222;-80
2022/10/15 03:01:00;;;;;;;30.60;22.27;;;14.40;99.90;;;;;;5017719;28;20203;-80
2022/10/15 03:03:28;;;;;;;26.45;20.40;;;14.40;99.90;;;;;;5031560;28;20196;-80
2022/10/15 03:05:57;;;;;;;26.25;21.65;;;14.40;99.90;;;;;;5034801;28;20553;-80
2022/10/15 03:08:25;;;;;;;29.73;21.05;;;14.30;99.90;;;;;;5034204;28;20223;-80
2022/10/15 03:10:52;;;;;;;32.67;21.65;;;14.30;99.90;;;;;;5020741;28;20202;-79
2022/10/15 03:13:21;;;;;;;26.83;20.92;;;14.30;99.90;;;;;;5037248;28;20234;-80
2022/10/15 03:15:52;;;;;;;32.45;23.13;;;14.40;99.90;;;;;;5018883;28;20199;-79
2022/10/15 03:18:22;;;;;;;36.90;22.95;;;14.30;99.90;;;;;;5034516;28;20231;-79
2022/10/15 03:20:57;;;;;;;35.67;23.63;;;14.30;99.90;;;;;;5028870;28;20195;-79
2022/10/15 03:23:25;;;;;;;37.50;22.20;;;14.30;99.90;;;;;;5032484;28;20191;-79
2022/10/15 03:26:02;;;;;;;41.85;25.20;;;14.30;99.90;;;;;;5030949;28;20206;-79
2022/10/15 03:28:30;;;;;;;47.30;27.48;;;14.30;99.90;;;;;;5034123;28;20229;-80
2022/10/15 03:30:58;;;;;;;48.33;29.20;;;14.30;99.90;;;;;;5014639;28;20199;-80
2022/10/15 03:33:27;;;;;;;54.40;29.15;;;14.30;99.90;;;;;;5017926;28;20512;-80
2022/10/15 03:35:57;;;;;;;50.58;29.95;;;14.20;99.90;;;;;;5013918;28;20199;-79
2022/10/15 03:38:25;;;;;;;53.25;29.08;;;14.20;99.90;;;;;;5035312;28;20580;-80
2022/10/15 03:40:54;;;;;;;47.20;30.20;;;14.10;99.90;;;;;;5018219;28;20226;-79
2022/10/15 03:43:35;;;;;;;47.67;28.67;;;14.10;99.90;;;;;;5035246;28;20657;-80
2022/10/15 03:46:05;;;;;;;48.50;28.92;;;14.10;99.90;;;;;;5018356;28;20529;-80
2022/10/15 03:48:36;;;;;;;44.15;28.15;;;14.20;99.90;;;;;;5033431;28;20214;-80
2022/10/15 03:51:05;;;;;;;42.42;27.70;;;14.10;99.90;;;;;;5017392;28;20203;-80
2022/10/15 03:53:33;;;;;;;44.38;28.35;;;14.10;99.90;;;;;;5019520;28;20210;-80
2022/10/15 03:56:04;;;;;;;43.83;27.98;;;14.10;99.90;;;;;;5017822;28;20205;-79
2022/10/15 03:58:31;;;;;;;39.58;25.42;;;14.20;99.90;;;;;;5029681;28;20234;-79
2022/10/15 04:01:02;;;;;;;45.55;28.15;;;14.30;99.90;;;;;;5030790;28;20206;-80
2022/10/15 04:03:29;;;;;;;38.35;25.17;;;14.30;99.90;;;;;;5032065;28;20203;-80
2022/10/15 04:05:57;;;;;;;30.20;21.05;;;14.40;99.90;;;;;;5013333;28;20203;-80
2022/10/15 04:08:29;;;;;;;28.52;20.67;;;14.30;99.90;;;;;;5005745;28;20221;-79
2022/10/15 04:10:58;;;;;;;27.83;20.88;;;14.30;99.90;;;;;;5016680;28;20226;-80
2022/10/15 04:13:26;;;;;;;27.15;20.17;;;14.30;99.90;;;;;;5031865;28;20199;-80
2022/10/15 04:15:53;;;;;;;23.70;18.65;;;14.30;99.90;;;;;;5031375;28;20203;-79
2022/10/15 04:18:21;;;;;;;22.05;17.98;;;14.20;99.90;;;;;;5033386;28;20237;-79
2022/10/15 04:20:52;;;;;;;25.95;19.65;;;14.20;99.90;;;;;;5016286;28;20708;-79
2022/10/15 04:23:23;;;;;;;25.08;19.77;;;14.20;99.90;;;;;;5027854;28;20214;-79
2022/10/15 04:26:18;;;;;;;27.45;19.38;;;14.10;99.90;;;;;;5024748;28;20191;-80
2022/10/15 04:28:48;;;;;;;25.23;21.70;;;14.10;99.90;;;;;;5024201;28;20226;-79
2022/10/15 04:31:15;;;;;;;26.20;20.35;;;14.10;99.90;;;;;;5031798;28;20463;-80
2022/10/15 04:33:43;;;;;;;29.52;22.80;;;14.10;99.90;;;;;;5030501;28;20207;-80
2022/10/15 04:36:13;;;;;;;33.58;22.38;;;14.00;99.90;;;;;;5012983;28;20561;-80
2022/10/15 04:39:13;;;;;;;29.63;22.55;;;14.00;99.90;;;;;;5024857;28;20210;-79
2022/10/15 04:41:44;;;;;;;31.27;22.80;;;14.00;99.90;;;;;;5033115;28;20209;-79
2022/10/15 04:44:32;;;;;;;29.15;22.10;;;14.00;99.90;;;;;;5013480;28;20210;-80
2022/10/15 04:47:01;;;;;;;33.60;23.50;;;13.90;99.90;;;;;;5034991;28;20209;-80
2022/10/15 04:49:39;;;;;;;32.47;23.50;;;13.90;99.90;;;;;;5012663;28;20236;-79
2022/10/15 04:52:26;;;;;;;32.67;23.63;;;14.00;99.90;;;;;;5027140;28;20195;-79
2022/10/15 04:54:59;;;;;;;31.40;24.85;;;14.00;99.90;;;;;;5014178;28;20207;-80
2022/10/15 04:57:27;;;;;;;33.33;25.50;;;14.00;99.90;;;;;;5032134;28;20219;-79
2022/10/15 04:59:55;;;;;;;33.80;25.88;;;14.00;99.90;;;;;;5030050;28;20223;-79
2022/10/15 05:02:32;;;;;;;32.55;24.17;;;14.00;99.90;;;;;;5031955;28;20202;-79
2022/10/15 05:05:14;;;;;;;31.60;24.42;;;14.00;99.90;;;;;;5015321;28;20218;-79
2022/10/15 05:07:50;;;;;;;32.22;23.90;;;14.00;99.90;;;;;;5012063;28;20207;-79
2022/10/15 05:10:18;;;;;;;37.30;25.33;;;14.00;99.90;;;;;;5016573;28;20231;-79
2022/10/15 05:12:48;;;;;;;33.47;25.20;;;14.00;99.90;;;;;;5029843;28;20207;-79
2022/10/15 05:15:16;;;;;;;32.35;24.17;;;13.90;99.90;;;;;;5028622;28;20203;-79
2022/10/15 05:17:43;;;;;;;36.97;26.13;;;14.00;99.90;;;;;;5029131;28;20204;-79
2022/10/15 05:20:11;;;;;;;32.60;24.83;;;13.90;99.90;;;;;;5023802;28;20219;-79
2022/10/15 05:22:38;;;;;;;32.15;23.42;;;14.00;99.90;;;;;;5015497;28;20210;-79
2022/10/15 05:25:07;;;;;;;33.88;24.65;;;14.00;99.90;;;;;;5015435;28;20278;-79
2022/10/15 05:27:37;;;;;;;30.35;24.38;;;14.00;99.90;;;;;;5016443;28;20205;-80
2022/10/15 05:30:08;;;;;;;31.65;23.52;;;14.00;99.90;;;;;;5006563;28;20230;-80
2022/10/15 05:32:42;;;;;;;33.83;24.80;;;14.00;99.90;;;;;;5028353;28;20198;-79
2022/10/15 05:35:12;;;;;;;30.00;22.23;;;14.00;99.90;;;;;;5029619;28;20198;-78
2022/10/15 05:38:12;;;;;;;31.27;24.15;;;14.00;99.90;;;;;;5027731;28;20199;-79
2022/10/15 05:40:40;;;;;;;28.48;22.50;;;14.00;99.90;;;;;;5027181;28;20198;-77
2022/10/15 05:43:18;;;;;;;30.25;24.25;;;14.00;99.90;;;;;;5016857;28;20209;-79
2022/10/15 05:45:47;;;;;;;32.55;23.70;;;14.10;99.90;;;;;;5030770;28;20203;-80
2022/10/15 05:48:14;;;;;;;32.90;23.98;;;14.10;99.90;;;;;;5033465;28;20199;-79
2022/10/15 05:50:43;;;;;;;31.05;24.17;;;14.10;99.90;;;;;;5031753;28;20214;-79
2022/10/15 05:53:42;;;;;;;32.72;24.20;;;14.10;99.90;;;;;;5022688;28;20203;-79
2022/10/15 05:56:16;;;;;;;32.15;23.92;;;14.10;99.90;;;;;;5025426;28;20202;-79
2022/10/15 05:58:44;;;;;;;33.72;23.95;;;14.00;99.90;;;;;;5010928;28;20222;-79
2022/10/15 06:05:00;;;;;;;32.13;22.58;;;14.00;99.90;;;;;;5025519;28;20182;-79
2022/10/15 06:07:40;;;;;;;31.40;24.25;;;14.00;99.90;;;;;;5021274;28;20562;-80
2022/10/15 06:10:08;;;;;;;30.80;23.55;;;14.00;99.90;;;;;;5028352;28;20222;-79
2022/10/15 06:12:38;;;;;;;33.70;25.67;;;14.00;99.90;;;;;;5030051;28;20232;-80
2022/10/15 06:15:06;;;;;;;31.83;24.23;;;14.10;99.90;;;;;;5011629;28;20203;-79
2022/10/15 06:17:34;;;;;;;29.02;23.60;;;14.00;99.90;;;;;;5035839;28;20199;-79
2022/10/15 06:20:01;;;;;;;29.55;23.55;;;14.10;99.90;;;;;;5013379;28;20723;-79
2022/10/15 06:22:30;;;;;;;34.58;24.48;;;14.10;99.90;;;;;;5042674;28;20202;-79
2022/10/15 06:25:06;;;;;;;30.80;23.23;;;14.10;99.90;;;;;;5033587;28;20206;-79
2022/10/15 06:27:42;;;;;;;32.75;24.83;;;14.10;99.90;;;;;;5014461;28;20209;-79
2022/10/15 06:30:17;;;;;;;35.30;24.67;;;14.10;99.90;;;;;;5029984;28;20210;-80
2022/10/15 06:32:48;;;;;;;31.88;25.50;;;14.10;99.90;;;;;;5014709;28;20213;-79
2022/10/15 06:35:16;;;;;;;30.33;23.98;;;14.10;99.90;;;;;;5014485;28;20203;-79
2022/10/15 06:37:46;;;;;;;31.48;25.17;;;14.10;99.90;;;;;;5006950;28;20207;-79
2022/10/15 06:40:14;;;;;;;36.75;27.08;;;14.10;99.90;;;;;;5023314;28;20661;-80
2022/10/15 06:43:21;;;;;;;33.03;25.48;;;14.10;99.90;;;;;;5024398;28;20199;-79
2022/10/15 06:46:11;;;;;;;34.13;24.88;;;14.10;99.90;;;;;;5024941;28;20194;-79
2022/10/15 06:48:42;;;;;;;31.75;24.85;;;14.20;99.90;;;;;;5007821;28;20219;-80
2022/10/15 06:51:09;;;;;;;33.20;25.02;;;14.10;99.90;;;;;;5009824;28;20241;-80
2022/10/15 06:54:24;;;;;;;33.13;24.27;;;14.10;99.90;;;;;;5022074;28;20199;-80
2022/10/15 06:57:28;;;;;;;33.72;24.45;;;14.10;99.90;;;;;;5016263;28;20207;-80
2022/10/15 06:59:56;;;;;;;32.20;25.33;;;14.10;99.90;;;;;;5019051;28;20711;-80
2022/10/15 07:02:25;;;;;;;32.30;24.15;;;14.20;99.90;;;;;;5010723;28;20203;-80
2022/10/15 07:04:58;;;;;;;32.28;24.10;;;14.20;99.90;;;;;;5012063;28;20202;-80
2022/10/15 07:07:45;;;;;;;;;;;;;;;;;;;;;
2022/10/15 07:11:04;;;;;;;32.42;24.38;;;14.30;99.90;;;;;;5028954;28;20215;-81
2022/10/15 07:13:32;;;;;;;29.70;22.55;;;14.40;99.90;;;;;;4987575;28;20203;-79
2022/10/15 07:16:48;;;;;;;31.98;22.90;;;14.40;99.90;;;;;;5031845;28;20202;-81
2022/10/15 07:19:36;;;;;;;30.45;21.77;;;14.50;99.90;;;;;;5025020;28;20229;-81
2022/10/15 07:22:04;;;;;;;26.98;21.13;;;14.50;99.90;;;;;;5035649;28;20187;-81
2022/10/15 07:24:32;;;;;;;28.38;21.90;;;14.50;99.90;;;;;;5030719;28;20210;-80
2022/10/15 07:27:08;;;;;;;31.52;21.58;;;14.50;99.90;;;;;;5031923;28;20198;-80
2022/10/15 07:29:35;;;;;;;30.73;21.98;;;14.50;99.90;;;;;;5029365;28;20234;-81
2022/10/15 07:32:18;;;;;;;28.50;20.88;;;14.50;99.90;;;;;;5030249;28;20234;-80
2022/10/15 07:38:46;;;;;;;29.77;21.10;;;14.60;99.90;;;;;;5029443;28;20237;-81
2022/10/15 07:41:14;;;;;;;26.92;20.42;;;14.50;99.90;;;;;;5031291;28;20202;-81
2022/10/15 07:43:45;;;;;;;28.60;22.23;;;14.60;99.90;;;;;;5037068;28;20191;-81
2022/10/15 07:46:15;;;;;;;28.35;21.67;;;14.60;99.90;;;;;;5015761;28;20298;-81
2022/10/15 07:48:43;;;;;;;27.30;20.83;;;14.60;99.90;;;;;;5032913;28;20227;-80
2022/10/15 07:51:19;;;;;;;30.05;23.65;;;14.60;99.90;;;;;;5012063;28;20218;-80
2022/10/15 07:53:48;;;;;;;28.98;21.85;;;14.60;99.90;;;;;;5035536;28;20195;-80
2022/10/15 09:02:16;;;;;;;14.30;12.05;;;15.80;99.90;;;;;;4839564;29;20221;-79
2022/10/15 09:05:08;;;;;;;12.90;11.00;;;15.80;99.90;;;;;;4839094;29;20214;-79
2022/10/15 09:08:00;;;;;;;11.25;10.05;;;15.90;99.90;;;;;;4895944;29;20203;-80
2022/10/15 09:33:05;;;;;;;3.70;3.30;;;16.30;99.90;;;;;;4846470;29;20233;-80
2022/10/15 09:35:40;;;;;;;3.95;3.08;;;16.40;99.90;;;;;;4946777;28;20217;-80
2022/10/15 09:38:40;;;;;;;;;;;;;;;;;;;;;
2022/10/15 09:41:19;;;;;;;3.20;2.90;;;16.50;99.90;;;;;;5030951;28;20199;-80
2022/10/15 09:43:51;;;;;;;3.13;2.83;;;16.50;99.90;;;;;;5022414;28;20215;-80
2022/10/15 09:47:16;;;;;;;2.30;2.10;;;16.50;99.90;;;;;;5028773;28;20219;-80
2022/10/15 10:04:41;;;;;;;3.58;1.92;;;17.30;99.90;;;;;;4896379;28;20629;-82
2022/10/15 10:07:30;;;;;;;3.45;2.63;;;17.20;99.90;;;;;;4966410;28;20213;-82
2022/10/15 10:09:59;;;;;;;0.95;0.75;;;17.60;99.90;;;;;;5011502;28;20223;-81
2022/10/15 10:12:45;;;;;;;0.90;0.60;;;17.60;99.90;;;;;;5025788;28;20673;-80
2022/10/15 10:16:01;;;;;;;0.70;0.68;;;17.30;99.90;;;;;;5022714;28;20203;-80
2022/10/15 10:21:46;;;;;;;1.38;0.85;;;17.00;99.90;;;;;;5009718;28;20203;-80
2022/10/15 10:24:27;;;;;;;0.60;0.60;;;17.00;99.90;;;;;;5027504;28;20210;-79
2022/10/15 10:26:54;;;;;;;0.60;0.60;;;17.00;99.90;;;;;;5030152;28;20214;-80
2022/10/15 10:29:23;;;;;;;1.67;1.00;;;16.90;99.90;;;;;;5028425;28;20302;-79
2022/10/15 10:31:51;;;;;;;0.85;0.57;;;17.00;99.90;;;;;;5012185;28;20569;-78
2022/10/15 10:34:33;;;;;;;0.77;0.77;;;17.00;99.90;;;;;;5037810;22;20222;-75
2022/10/15 10:37:06;;;;;;;0.95;0.50;;;17.00;99.90;;;;;;5049058;28;20198;-75
2022/10/15 10:39:35;;;;;;;0.90;0.60;;;17.00;99.90;;;;;;5048455;28;20191;-75
2022/10/15 10:42:05;;;;;;;1.23;0.50;;;17.00;99.90;;;;;;5048523;28;20273;-75
2022/10/15 10:44:34;;;;;;;0.80;0.40;;;17.00;99.90;;;;;;5028227;28;20231;-75
2022/10/15 10:47:14;;;;;;;0.63;0.50;;;16.90;99.90;;;;;;5027607;28;20195;-75
2022/10/15 10:49:43;;;;;;;2.20;0.60;;;16.80;99.90;;;;;;5030060;28;20195;-77
2022/10/15 10:52:37;;;;;;;0.75;0.40;;;16.90;99.90;;;;;;5035301;28;20223;-75
2022/10/15 10:55:13;;;;;;;1.27;0.68;;;16.90;99.90;;;;;;5013896;28;20227;-75
2022/10/15 10:57:45;;;;;;;1.63;0.50;;;16.90;99.90;;;;;;5020797;28;20206;-75
2022/10/15 11:00:17;;;;;;;0.50;0.50;;;17.00;99.90;;;;;;5019670;28;20540;-75
2022/10/15 11:02:49;;;;;;;0.63;0.50;;;17.00;99.90;;;;;;5039520;28;20190;-75
2022/10/15 11:05:24;;;;;;;0.45;0.45;;;17.10;99.90;;;;;;5016301;28;20580;-74
2022/10/15 11:08:02;;;;;;;0.60;0.60;;;17.00;99.90;;;;;;5033466;28;20194;-75
2022/10/15 11:10:35;;;;;;;0.40;0.40;;;17.00;99.90;;;;;;5031002;28;20214;-74
2022/10/15 11:13:16;;;;;;;0.65;0.30;;;17.00;99.90;;;;;;5035875;28;20211;-75
2022/10/15 11:15:49;;;;;;;0.57;0.52;;;16.90;99.90;;;;;;5019786;28;20225;-75
2022/10/15 11:18:36;;;;;;;0.60;0.50;;;16.90;99.90;;;;;;5017776;28;20211;-76
2022/10/15 11:21:18;;;;;;;0.70;0.43;;;16.80;99.90;;;;;;5017682;28;20210;-75
2022/10/15 11:24:11;;;;;;;0.30;0.30;;;16.70;99.90;;;;;;5032300;28;20195;-76
2022/10/15 11:26:55;;;;;;;0.85;0.70;;;16.70;99.90;;;;;;5017808;28;20221;-74
2022/10/15 11:29:38;;;;;;;0.52;0.47;;;16.70;99.90;;;;;;5032837;28;20190;-74
2022/10/15 11:32:20;;;;;;;1.15;0.40;;;16.80;99.90;;;;;;5036574;28;20215;-74
2022/10/15 11:35:19;;;;;;;0.50;0.43;;;16.90;99.90;;;;;;5016515;28;20227;-74
2022/10/15 11:37:58;;;;;;;0.40;0.40;;;16.90;99.90;;;;;;5036017;28;20202;-74
2022/10/15 11:40:43;;;;;;;0.60;0.50;;;16.90;99.90;;;;;;5041229;28;20258;-75
2022/10/15 11:43:34;;;;;;;2.05;0.55;;;17.00;99.90;;;;;;5033969;28;20202;-75
2022/10/15 11:46:12;;;;;;;0.45;0.45;;;17.00;99.90;;;;;;5020227;28;20214;-74
2022/10/15 11:48:56;;;;;;;0.50;0.50;;;17.10;99.90;;;;;;5021388;28;20214;-74
2022/10/15 11:51:33;;;;;;;2.40;0.90;;;17.10;99.90;;;;;;5038193;28;20202;-75
2022/10/15 11:54:26;;;;;;;1.30;0.60;;;17.10;99.90;;;;;;5037960;28;20219;-74
2022/10/15 11:57:00;;;;;;;1.38;0.50;;;17.20;99.90;;;;;;5037943;28;20203;-74
2022/10/15 11:59:35;;;;;;;2.03;0.80;;;17.20;99.90;;;;;;5025080;28;20207;-74
2022/10/15 12:02:08;;;;;;;1.35;0.60;;;17.30;99.90;;;;;;5042172;28;20198;-74
2022/10/15 12:04:46;;;;;;;0.68;0.60;;;17.40;99.90;;;;;;5041542;28;20215;-74
2022/10/15 12:07:18;;;;;;;0.90;0.60;;;17.40;99.90;;;;;;5041473;28;20199;-74
2022/10/15 12:09:50;;;;;;;0.68;0.68;;;17.40;99.90;;;;;;5023464;28;20198;-74
2022/10/15 12:12:30;;;;;;;2.15;0.93;;;17.40;99.90;;;;;;5034214;28;20194;-74
2022/10/15 12:15:30;;;;;;;0.63;0.60;;;17.40;99.90;;;;;;5039758;28;20215;-74
2022/10/15 12:18:03;;;;;;;0.88;0.77;;;17.40;99.90;;;;;;5023932;28;20210;-74
2022/10/15 12:20:31;;;;;;;2.15;0.70;;;17.40;99.90;;;;;;5042035;28;20202;-75
2022/10/15 12:23:01;;;;;;;1.10;0.70;;;17.40;99.90;;;;;;5041475;28;20206;-74
2022/10/15 12:25:48;;;;;;;1.65;0.73;;;17.50;99.90;;;;;;5018905;28;20226;-74
2022/10/15 12:28:21;;;;;;;0.80;0.80;;;17.40;99.90;;;;;;5036057;28;20199;-75
2022/10/15 12:31:00;;;;;;;0.95;0.80;;;17.50;99.90;;;;;;5031711;28;20206;-74
2022/10/15 12:33:45;;;;;;;1.00;0.90;;;17.50;99.90;;;;;;5013113;28;20238;-74
2022/10/15 12:36:26;;;;;;;1.55;1.00;;;17.50;99.90;;;;;;5027308;28;20237;-74
2022/10/15 12:39:01;;;;;;;2.35;1.02;;;17.50;99.90;;;;;;5037829;28;20199;-76
2022/10/15 12:41:39;;;;;;;1.33;0.93;;;17.50;99.90;;;;;;5037258;28;20211;-74
2022/10/15 12:44:18;;;;;;;1.38;0.80;;;17.60;99.90;;;;;;5032443;28;20203;-74
2022/10/15 12:46:47;;;;;;;2.05;0.80;;;17.60;99.90;;;;;;5035443;28;20205;-74
2022/10/15 12:49:51;;;;;;;1.65;0.55;;;17.70;99.90;;;;;;5020319;28;20229;-74
2022/10/15 12:53:07;;;;;;;2.00;0.70;;;17.70;99.90;;;;;;5004817;28;20203;-74
2022/10/15 12:55:36;;;;;;;1.02;0.70;;;17.80;99.90;;;;;;5025084;28;20222;-76
2022/10/15 12:58:33;;;;;;;0.85;0.80;;;17.80;99.90;;;;;;5015494;28;20202;-76
2022/10/15 13:01:09;;;;;;;1.42;0.70;;;17.80;99.90;;;;;;5028699;28;20615;-76
2022/10/15 13:03:43;;;;;;;2.78;0.90;;;17.80;99.90;;;;;;5028193;28;20203;-76
2022/10/15 13:06:37;;;;;;;1.35;0.73;;;17.80;99.90;;;;;;5032229;28;20242;-76
2022/10/15 13:09:26;;;;;;;1.42;0.75;;;17.80;99.90;;;;;;5025223;28;20211;-76
2022/10/15 13:11:55;;;;;;;0.90;0.70;;;17.90;99.90;;;;;;5026285;28;20195;-76
2022/10/15 13:14:34;;;;;;;0.95;0.85;;;17.90;99.90;;;;;;5012791;28;20238;-76
2022/10/15 13:17:13;;;;;;;0.70;0.70;;;18.00;99.90;;;;;;5031917;28;20199;-76
2022/10/15 13:19:56;;;;;;;0.70;0.70;;;17.90;99.90;;;;;;5031790;28;20206;-76
2022/10/15 13:22:25;;;;;;;0.75;0.70;;;18.00;99.90;;;;;;5027519;28;20707;-76
2022/10/15 13:24:54;;;;;;;2.55;0.80;;;18.10;99.90;;;;;;5013698;28;20219;-76
2022/10/15 13:27:24;;;;;;;1.15;0.90;;;18.10;99.90;;;;;;5013301;28;20217;-73
2022/10/15 13:29:56;;;;;;;1.00;0.70;;;18.10;99.90;;;;;;5029500;28;20199;-74
2022/10/15 13:32:27;;;;;;;0.70;0.65;;;18.10;99.90;;;;;;5010186;28;20207;-74
2022/10/15 13:34:58;;;;;;;0.80;0.80;;;18.10;99.90;;;;;;5028678;28;20223;-76
2022/10/15 13:37:34;;;;;;;0.80;0.80;;;18.20;99.90;;;;;;5027891;28;20207;-76
2022/10/15 13:40:03;;;;;;;2.78;0.80;;;18.20;99.90;;;;;;5014185;28;20213;-76
2022/10/15 13:42:33;;;;;;;0.93;0.80;;;18.30;99.90;;;;;;5034475;28;20214;-76
2022/10/15 13:45:03;;;;;;;3.15;1.00;;;18.40;99.90;;;;;;5016230;28;20297;-77
2022/10/15 13:47:37;;;;;;;1.00;0.90;;;18.60;99.90;;;;;;5014366;28;20195;-76
2022/10/15 13:50:18;;;;;;;1.10;0.77;;;18.70;99.90;;;;;;5032133;28;20199;-76
2022/10/15 13:52:49;;;;;;;1.17;0.90;;;18.80;99.90;;;;;;5008195;28;20218;-76
2022/10/15 13:55:25;;;;;;;1.33;0.70;;;18.70;99.90;;;;;;5035743;28;20231;-76
2022/10/15 13:58:01;;;;;;;2.70;0.80;;;18.80;99.90;;;;;;5031669;28;20207;-76
2022/10/15 14:00:32;;;;;;;1.42;0.90;;;18.80;99.90;;;;;;5016699;28;20213;-76
2022/10/15 14:03:21;;;;;;;1.02;0.90;;;18.70;99.90;;;;;;5033956;28;20198;-76
2022/10/15 14:05:53;;;;;;;0.85;0.85;;;18.80;99.90;;;;;;5033348;28;20676;-76
2022/10/15 14:08:24;;;;;;;0.90;0.90;;;18.80;99.90;;;;;;5032803;28;20648;-76
2022/10/15 14:10:53;;;;;;;1.70;1.17;;;18.90;99.90;;;;;;5033693;28;20199;-76
2022/10/15 14:13:22;;;;;;;1.40;1.00;;;18.80;99.90;;;;;;5013460;28;20219;-76
2022/10/15 14:15:59;;;;;;;1.70;1.10;;;18.80;99.90;;;;;;5026374;28;20231;-77
2022/10/15 14:18:35;;;;;;;0.88;0.70;;;18.90;99.90;;;;;;5014984;28;20210;-76
2022/10/15 14:21:03;;;;;;;1.75;0.90;;;19.00;99.90;;;;;;5033929;28;20676;-76
2022/10/15 14:23:31;;;;;;;1.33;0.75;;;18.90;99.90;;;;;;5033217;28;20207;-76
2022/10/15 14:26:00;;;;;;;2.65;1.00;;;18.90;99.90;;;;;;5034202;28;20233;-77
2022/10/15 14:28:34;;;;;;;1.48;0.73;;;19.00;99.90;;;;;;5014330;28;20669;-76
2022/10/15 14:31:04;;;;;;;1.08;0.93;;;19.00;99.90;;;;;;5015390;28;20202;-77
2022/10/15 14:33:43;;;;;;;1.80;1.05;;;19.00;99.90;;;;;;5029300;28;20222;-76
2022/10/15 14:36:23;;;;;;;1.20;1.10;;;19.00;99.90;;;;;;5015029;28;20226;-76
2022/10/15 14:38:52;;;;;;;1.67;1.30;;;18.90;99.90;;;;;;5034434;28;20191;-76
2022/10/15 14:41:31;;;;;;;1.30;1.15;;;18.80;99.90;;;;;;5013898;28;20221;-76
2022/10/15 14:44:19;;;;;;;1.42;1.30;;;18.80;99.90;;;;;;5030275;28;20564;-76
2022/10/15 14:46:49;;;;;;;1.85;1.52;;;19.00;99.90;;;;;;5021961;28;20210;-76
2022/10/15 14:49:22;;;;;;;1.00;0.85;;;18.90;99.90;;;;;;5031828;28;20653;-76
2022/10/15 14:51:55;;;;;;;1.27;1.08;;;18.90;99.90;;;;;;5019936;28;20195;-76
2022/10/15 14:54:28;;;;;;;1.30;0.90;;;19.00;99.90;;;;;;5018580;28;20230;-76
2022/10/15 14:56:59;;;;;;;1.30;1.20;;;18.90;99.90;;;;;;5014587;28;20541;-76
2022/10/15 14:59:30;;;;;;;1.00;0.90;;;18.90;99.90;;;;;;5017812;28;20210;-76
2022/10/15 15:02:00;;;;;;;1.50;0.60;;;18.90;99.90;;;;;;5037532;28;20198;-76
2022/10/15 15:04:52;;;;;;;1.52;0.90;;;18.90;99.90;;;;;;5017617;28;20218;-76
2022/10/15 15:07:22;;;;;;;2.38;1.33;;;18.80;99.90;;;;;;5031731;28;20198;-76
2022/10/15 15:09:54;;;;;;;4.07;1.20;;;18.60;99.90;;;;;;5034337;28;20538;-76
2022/10/15 15:12:24;;;;;;;1.83;0.80;;;18.20;99.90;;;;;;5027916;28;20210;-76